Chicago O'Hare International Airport
KORD : now visible

Airfield :











YOU CAN JOIN US ON...

 
LOGIN :

Register | Disclaimer

   EN    FR    IT 

 









Legend :    VFR   Marginal VFR   IFR   Intensive IFR   Very Intensive IFR
Visi :
Ceiling :
>= 8 km
>= 3000ft
5 to 8 km
1000 to 3000 ft
1500m to 5 km
500 to 1000 ft
800 to 1500m
200 to 500 ft
< 800m
< 200 ft
Symbols :   Thunderstorms  Fog  Heavy snow  Heavy precipitations  Wind > 20 kt






- Airport Elevation : 672 ft
- IATA code : ORD


KORD - Chicago O'Hare International

CURRENT METAR :
  • 281351Z 25007KT 10SM OVC015 M01/M04 A3008 RMK AO2 SLP193 T10061039

EXPIRED METARs :
  • 281251Z 28006KT 10SM OVC015 M01/M03 A3007 RMK AO2 SLP191 T10061033
  • 281151Z 32007KT 10SM OVC015 M01/M03 A3006 RMK AO2 SLP186 60000 T10061033 10000 21006 53002

TAF KORD
Valid from the 28 at 12:00 until the 29 at 18:00 UTC


281120Z 2812/2918 30007KT P6SM OVC015
FM282100 34005KT P6SM OVC020
FM290300 01003KT P6SM OVC020
PROB30 2909/2915 5SM -SHSN BKN015



MET'MAP, your aeronautical weather chart ! - Copyright ORBIFLY December 2007 - Disclaimer

ORBIFLY MET'MAP TEAM :

Programming & Development : Alexandra Zaïnal
Concept & original design : Baudouin d'Aumeries
Assistance for programming : Marc-Olivier Méhu
Technical & hardware support : Manuel Goepfert

Contact : metmap@orbifly.com




SOURCES & CREDITS :

   NOAA       Earth
Advisory